Terminal Aerodrome Forecast
Issued by NWS Sioux Falls, SD

Home | Current Version | Previous Version | Text Only | Print | Product List | Glossary On
Versions: 1 2 3 4 5 6 7 8 9 10 11 12 13 14 15 16 17 18 19 20 21 22 23 24 25 26 27
000
FTUS43 KFSD 021139
TAFSUX
TAF
KSUX 021139Z 0212/0312 11003KT P6SM BKN200
     FM021600 13009KT P6SM BKN110
     FM021900 15015G22KT P6SM BKN090
     FM030400 15014G20KT 6SM BR OVC025
     FM030700 16012G18KT 4SM -FZDZ BR OVC012
     FM031000 17008KT 3SM -FZDZSN BR OVC008=

USA.gov is the U.S. government's official web portal to all federal, state and local government web resources and services.